Fanning Springs, Florida
Current Conditions -  °F | °C
As of 6:53 AM on Monday 24 Nov 2014 (Local Time) from KGNV Reporting Station
Overcast Overcast  
Wind Chill: 72°   Ceiling: 2500
Heat Index: 72°   Visibility: 9mi
Dew Point: 70°   Wind: 8mph
Humidity: 93%   Direction: 190°S
Pressure: 29.92"   Gusts: NA
Location:  29.655°N, 82.7854°W
Report Text: KGNV 241153Z 19007KT 9SM FEW013 OVC025 22/21 A2992 RMK AO2 SLP130 T02220211 10228 20222 53011
Loading
Personal Weather Stations






























Interactive Weather Map New forecast layout! Learn more

10-Day Weather Forecast

Advertisements
Track Severe Weather on mobile